sensor_id;sensor_type;location;lat;lon;timestamp;P1;durP1;ratioP1;P2;durP2;ratioP2
3625;SDS011;1827;50.534;8.316;2022-07-23T00:01:21;36.03;;;12.40;;
3625;SDS011;1827;50.534;8.316;2022-07-23T00:03:47;30.00;;;12.20;;
3625;SDS011;1827;50.534;8.316;2022-07-23T00:06:13;30.87;;;13.00;;
3625;SDS011;1827;50.534;8.316;2022-07-23T00:08:39;33.03;;;12.17;;
3625;SDS011;1827;50.534;8.316;2022-07-23T00:11:05;30.20;;;11.90;;
3625;SDS011;1827;50.534;8.316;2022-07-23T00:13:31;32.57;;;13.10;;
3625;SDS011;1827;50.534;8.316;2022-07-23T00:15:57;31.87;;;12.73;;
3625;SDS011;1827;50.534;8.316;2022-07-23T00:18:22;35.93;;;12.40;;
3625;SDS011;1827;50.534;8.316;2022-07-23T00:20:48;32.13;;;13.27;;
3625;SDS011;1827;50.534;8.316;2022-07-23T00:23:14;35.60;;;13.33;;
3625;SDS011;1827;50.534;8.316;2022-07-23T00:25:40;29.57;;;11.93;;
3625;SDS011;1827;50.534;8.316;2022-07-23T00:28:06;31.67;;;12.50;;
3625;SDS011;1827;50.534;8.316;2022-07-23T00:30:32;31.93;;;12.90;;
3625;SDS011;1827;50.534;8.316;2022-07-23T00:32:59;34.40;;;13.33;;
3625;SDS011;1827;50.534;8.316;2022-07-23T00:35:31;33.60;;;12.83;;
3625;SDS011;1827;50.534;8.316;2022-07-23T00:38:01;31.20;;;12.53;;
3625;SDS011;1827;50.534;8.316;2022-07-23T00:40:28;34.13;;;14.10;;
3625;SDS011;1827;50.534;8.316;2022-07-23T00:42:55;34.03;;;13.37;;
3625;SDS011;1827;50.534;8.316;2022-07-23T00:45:21;37.83;;;12.80;;
3625;SDS011;1827;50.534;8.316;2022-07-23T00:47:47;33.60;;;13.83;;
3625;SDS011;1827;50.534;8.316;2022-07-23T00:50:12;35.93;;;14.83;;
3625;SDS011;1827;50.534;8.316;2022-07-23T00:52:39;30.73;;;12.53;;
3625;SDS011;1827;50.534;8.316;2022-07-23T00:55:06;28.03;;;12.40;;
3625;SDS011;1827;50.534;8.316;2022-07-23T00:57:34;27.77;;;11.47;;
3625;SDS011;1827;50.534;8.316;2022-07-23T01:00:01;29.13;;;13.03;;
3625;SDS011;1827;50.534;8.316;2022-07-23T01:02:28;29.80;;;12.47;;
3625;SDS011;1827;50.534;8.316;2022-07-23T01:04:54;29.47;;;11.70;;
3625;SDS011;1827;50.534;8.316;2022-07-23T01:07:20;29.73;;;12.23;;
3625;SDS011;1827;50.534;8.316;2022-07-23T01:09:46;33.67;;;12.70;;
3625;SDS011;1827;50.534;8.316;2022-07-23T01:12:14;32.13;;;12.17;;
3625;SDS011;1827;50.534;8.316;2022-07-23T01:14:39;31.50;;;12.00;;
3625;SDS011;1827;50.534;8.316;2022-07-23T01:17:05;30.87;;;12.00;;
3625;SDS011;1827;50.534;8.316;2022-07-23T01:19:31;30.00;;;11.57;;
3625;SDS011;1827;50.534;8.316;2022-07-23T01:21:58;29.73;;;10.97;;
3625;SDS011;1827;50.534;8.316;2022-07-23T01:24:28;30.70;;;12.27;;
3625;SDS011;1827;50.534;8.316;2022-07-23T01:27:11;31.57;;;12.27;;
3625;SDS011;1827;50.534;8.316;2022-07-23T01:29:39;28.30;;;12.77;;
3625;SDS011;1827;50.534;8.316;2022-07-23T01:32:15;37.77;;;13.17;;
3625;SDS011;1827;50.534;8.316;2022-07-23T01:34:40;31.10;;;11.97;;
3625;SDS011;1827;50.534;8.316;2022-07-23T01:37:06;31.83;;;14.13;;
3625;SDS011;1827;50.534;8.316;2022-07-23T01:39:32;28.33;;;12.40;;
3625;SDS011;1827;50.534;8.316;2022-07-23T01:41:58;28.80;;;12.50;;
3625;SDS011;1827;50.534;8.316;2022-07-23T01:44:25;34.23;;;13.40;;
3625;SDS011;1827;50.534;8.316;2022-07-23T01:46:51;32.50;;;13.50;;
3625;SDS011;1827;50.534;8.316;2022-07-23T01:49:18;32.07;;;13.37;;
3625;SDS011;1827;50.534;8.316;2022-07-23T01:52:03;36.97;;;13.50;;
3625;SDS011;1827;50.534;8.316;2022-07-23T01:54:49;29.90;;;12.00;;
3625;SDS011;1827;50.534;8.316;2022-07-23T01:57:16;30.00;;;11.60;;
3625;SDS011;1827;50.534;8.316;2022-07-23T01:59:42;28.67;;;11.90;;
3625;SDS011;1827;50.534;8.316;2022-07-23T02:02:09;27.93;;;10.43;;
3625;SDS011;1827;50.534;8.316;2022-07-23T02:04:36;29.97;;;11.73;;
3625;SDS011;1827;50.534;8.316;2022-07-23T02:07:02;28.50;;;11.90;;
3625;SDS011;1827;50.534;8.316;2022-07-23T02:09:28;26.57;;;10.50;;
3625;SDS011;1827;50.534;8.316;2022-07-23T02:11:54;33.80;;;11.20;;
3625;SDS011;1827;50.534;8.316;2022-07-23T02:14:20;33.33;;;11.47;;
3625;SDS011;1827;50.534;8.316;2022-07-23T02:16:46;27.50;;;10.40;;
3625;SDS011;1827;50.534;8.316;2022-07-23T02:19:13;27.97;;;11.50;;
3625;SDS011;1827;50.534;8.316;2022-07-23T02:21:39;27.87;;;11.40;;
3625;SDS011;1827;50.534;8.316;2022-07-23T02:24:05;31.50;;;11.87;;
3625;SDS011;1827;50.534;8.316;2022-07-23T02:26:31;28.90;;;12.33;;
3625;SDS011;1827;50.534;8.316;2022-07-23T02:29:02;33.33;;;13.23;;
3625;SDS011;1827;50.534;8.316;2022-07-23T02:31:29;29.50;;;12.53;;
3625;SDS011;1827;50.534;8.316;2022-07-23T02:33:56;34.60;;;11.33;;
3625;SDS011;1827;50.534;8.316;2022-07-23T02:36:22;27.70;;;11.40;;
3625;SDS011;1827;50.534;8.316;2022-07-23T02:38:48;26.40;;;11.37;;
3625;SDS011;1827;50.534;8.316;2022-07-23T02:41:14;30.30;;;11.93;;
3625;SDS011;1827;50.534;8.316;2022-07-23T02:43:41;29.07;;;11.70;;
3625;SDS011;1827;50.534;8.316;2022-07-23T02:46:07;27.17;;;11.27;;
3625;SDS011;1827;50.534;8.316;2022-07-23T02:48:33;36.10;;;12.20;;
3625;SDS011;1827;50.534;8.316;2022-07-23T02:50:59;35.07;;;13.60;;
3625;SDS011;1827;50.534;8.316;2022-07-23T02:53:32;32.13;;;13.10;;
3625;SDS011;1827;50.534;8.316;2022-07-23T02:55:58;30.10;;;13.17;;
3625;SDS011;1827;50.534;8.316;2022-07-23T02:58:24;33.80;;;13.70;;
3625;SDS011;1827;50.534;8.316;2022-07-23T03:00:52;29.77;;;12.77;;
3625;SDS011;1827;50.534;8.316;2022-07-23T03:03:18;30.43;;;12.50;;
3625;SDS011;1827;50.534;8.316;2022-07-23T03:05:44;30.63;;;12.73;;
3625;SDS011;1827;50.534;8.316;2022-07-23T03:08:10;31.23;;;14.10;;
3625;SDS011;1827;50.534;8.316;2022-07-23T03:10:39;33.27;;;12.93;;
3625;SDS011;1827;50.534;8.316;2022-07-23T03:13:05;28.57;;;12.00;;
3625;SDS011;1827;50.534;8.316;2022-07-23T03:15:30;31.17;;;12.83;;
3625;SDS011;1827;50.534;8.316;2022-07-23T03:17:57;31.00;;;13.00;;
3625;SDS011;1827;50.534;8.316;2022-07-23T03:20:22;30.07;;;12.67;;
3625;SDS011;1827;50.534;8.316;2022-07-23T03:22:48;32.90;;;13.63;;
3625;SDS011;1827;50.534;8.316;2022-07-23T03:25:15;31.50;;;13.07;;
3625;SDS011;1827;50.534;8.316;2022-07-23T03:27:41;30.60;;;13.30;;
3625;SDS011;1827;50.534;8.316;2022-07-23T03:30:08;30.13;;;12.93;;
3625;SDS011;1827;50.534;8.316;2022-07-23T03:32:34;39.33;;;13.80;;
3625;SDS011;1827;50.534;8.316;2022-07-23T03:35:00;30.57;;;12.30;;
3625;SDS011;1827;50.534;8.316;2022-07-23T03:37:26;41.27;;;12.87;;
3625;SDS011;1827;50.534;8.316;2022-07-23T03:39:55;31.07;;;12.43;;
3625;SDS011;1827;50.534;8.316;2022-07-23T03:42:21;35.00;;;12.70;;
3625;SDS011;1827;50.534;8.316;2022-07-23T03:44:47;35.47;;;13.17;;
3625;SDS011;1827;50.534;8.316;2022-07-23T03:47:12;32.07;;;13.17;;
3625;SDS011;1827;50.534;8.316;2022-07-23T03:49:38;32.03;;;13.10;;
3625;SDS011;1827;50.534;8.316;2022-07-23T03:52:05;32.40;;;14.07;;
3625;SDS011;1827;50.534;8.316;2022-07-23T03:54:30;30.27;;;13.07;;
3625;SDS011;1827;50.534;8.316;2022-07-23T03:56:56;30.90;;;13.37;;
3625;SDS011;1827;50.534;8.316;2022-07-23T03:59:22;30.33;;;13.33;;
3625;SDS011;1827;50.534;8.316;2022-07-23T04:01:48;36.47;;;12.57;;
3625;SDS011;1827;50.534;8.316;2022-07-23T04:04:14;27.87;;;11.63;;
3625;SDS011;1827;50.534;8.316;2022-07-23T04:06:40;26.47;;;10.90;;
3625;SDS011;1827;50.534;8.316;2022-07-23T04:09:06;27.87;;;10.90;;
3625;SDS011;1827;50.534;8.316;2022-07-23T04:11:32;32.03;;;11.93;;
3625;SDS011;1827;50.534;8.316;2022-07-23T04:13:59;31.97;;;10.90;;
3625;SDS011;1827;50.534;8.316;2022-07-23T04:16:25;26.57;;;10.37;;
3625;SDS011;1827;50.534;8.316;2022-07-23T04:18:51;30.50;;;11.47;;
3625;SDS011;1827;50.534;8.316;2022-07-23T04:21:20;27.67;;;11.50;;
3625;SDS011;1827;50.534;8.316;2022-07-23T04:23:46;28.20;;;11.30;;
3625;SDS011;1827;50.534;8.316;2022-07-23T04:26:13;39.13;;;11.97;;
3625;SDS011;1827;50.534;8.316;2022-07-23T04:28:39;27.37;;;10.53;;
3625;SDS011;1827;50.534;8.316;2022-07-23T04:31:05;30.30;;;12.27;;
3625;SDS011;1827;50.534;8.316;2022-07-23T04:33:32;34.00;;;12.77;;
3625;SDS011;1827;50.534;8.316;2022-07-23T04:36:02;28.80;;;10.80;;
3625;SDS011;1827;50.534;8.316;2022-07-23T04:38:28;27.67;;;11.73;;
3625;SDS011;1827;50.534;8.316;2022-07-23T04:40:58;28.80;;;11.03;;
3625;SDS011;1827;50.534;8.316;2022-07-23T04:43:25;31.73;;;12.17;;
3625;SDS011;1827;50.534;8.316;2022-07-23T04:45:53;30.27;;;12.87;;
3625;SDS011;1827;50.534;8.316;2022-07-23T04:48:19;29.63;;;12.60;;
3625;SDS011;1827;50.534;8.316;2022-07-23T04:50:47;31.17;;;12.60;;
3625;SDS011;1827;50.534;8.316;2022-07-23T04:53:16;39.13;;;13.87;;
3625;SDS011;1827;50.534;8.316;2022-07-23T04:55:43;32.07;;;13.00;;
3625;SDS011;1827;50.534;8.316;2022-07-23T04:58:09;34.90;;;13.47;;
3625;SDS011;1827;50.534;8.316;2022-07-23T05:00:35;33.40;;;12.77;;
3625;SDS011;1827;50.534;8.316;2022-07-23T05:03:01;30.40;;;12.07;;
3625;SDS011;1827;50.534;8.316;2022-07-23T05:05:27;31.57;;;12.73;;
3625;SDS011;1827;50.534;8.316;2022-07-23T05:07:57;35.90;;;12.47;;
3625;SDS011;1827;50.534;8.316;2022-07-23T05:10:23;34.23;;;13.17;;
3625;SDS011;1827;50.534;8.316;2022-07-23T05:12:49;28.47;;;11.50;;
3625;SDS011;1827;50.534;8.316;2022-07-23T05:15:15;29.27;;;12.40;;
3625;SDS011;1827;50.534;8.316;2022-07-23T05:17:41;29.70;;;11.60;;
3625;SDS011;1827;50.534;8.316;2022-07-23T05:20:12;27.83;;;12.33;;
3625;SDS011;1827;50.534;8.316;2022-07-23T05:22:39;30.20;;;11.87;;
3625;SDS011;1827;50.534;8.316;2022-07-23T05:25:05;30.53;;;11.90;;
3625;SDS011;1827;50.534;8.316;2022-07-23T05:27:32;29.90;;;12.30;;
3625;SDS011;1827;50.534;8.316;2022-07-23T05:29:58;30.70;;;11.70;;
3625;SDS011;1827;50.534;8.316;2022-07-23T05:32:24;29.03;;;12.13;;
3625;SDS011;1827;50.534;8.316;2022-07-23T05:35:04;29.73;;;12.80;;
3625;SDS011;1827;50.534;8.316;2022-07-23T05:37:31;29.03;;;12.53;;
3625;SDS011;1827;50.534;8.316;2022-07-23T05:40:03;28.93;;;11.17;;
3625;SDS011;1827;50.534;8.316;2022-07-23T05:42:36;28.93;;;11.20;;
3625;SDS011;1827;50.534;8.316;2022-07-23T05:45:03;27.40;;;11.30;;
3625;SDS011;1827;50.534;8.316;2022-07-23T05:47:40;29.50;;;11.53;;
3625;SDS011;1827;50.534;8.316;2022-07-23T05:50:12;26.87;;;10.83;;
3625;SDS011;1827;50.534;8.316;2022-07-23T05:52:45;28.83;;;11.80;;
3625;SDS011;1827;50.534;8.316;2022-07-23T05:55:27;27.10;;;10.60;;
3625;SDS011;1827;50.534;8.316;2022-07-23T05:57:55;25.43;;;11.00;;
3625;SDS011;1827;50.534;8.316;2022-07-23T06:00:21;26.13;;;10.33;;
3625;SDS011;1827;50.534;8.316;2022-07-23T06:02:47;28.00;;;11.43;;
3625;SDS011;1827;50.534;8.316;2022-07-23T06:05:15;28.13;;;10.97;;
3625;SDS011;1827;50.534;8.316;2022-07-23T06:07:45;27.20;;;10.80;;
3625;SDS011;1827;50.534;8.316;2022-07-23T06:10:13;27.77;;;11.07;;
3625;SDS011;1827;50.534;8.316;2022-07-23T06:12:39;28.60;;;10.43;;
3625;SDS011;1827;50.534;8.316;2022-07-23T06:15:06;24.93;;;9.03;;
3625;SDS011;1827;50.534;8.316;2022-07-23T06:17:33;23.07;;;8.83;;
3625;SDS011;1827;50.534;8.316;2022-07-23T06:19:59;29.43;;;8.90;;
3625;SDS011;1827;50.534;8.316;2022-07-23T06:22:25;23.33;;;8.87;;
3625;SDS011;1827;50.534;8.316;2022-07-23T06:24:50;24.97;;;9.13;;
3625;SDS011;1827;50.534;8.316;2022-07-23T06:27:18;28.17;;;10.20;;
3625;SDS011;1827;50.534;8.316;2022-07-23T06:29:44;22.23;;;9.20;;
3625;SDS011;1827;50.534;8.316;2022-07-23T06:32:10;22.30;;;9.20;;
3625;SDS011;1827;50.534;8.316;2022-07-23T06:34:36;26.87;;;9.10;;
3625;SDS011;1827;50.534;8.316;2022-07-23T06:37:02;24.40;;;9.40;;
3625;SDS011;1827;50.534;8.316;2022-07-23T06:39:27;20.60;;;7.77;;
3625;SDS011;1827;50.534;8.316;2022-07-23T06:41:53;20.93;;;7.40;;
3625;SDS011;1827;50.534;8.316;2022-07-23T06:44:25;24.37;;;8.87;;
3625;SDS011;1827;50.534;8.316;2022-07-23T06:46:51;25.60;;;8.60;;
3625;SDS011;1827;50.534;8.316;2022-07-23T06:49:17;30.43;;;8.27;;
3625;SDS011;1827;50.534;8.316;2022-07-23T06:51:43;22.93;;;7.70;;
3625;SDS011;1827;50.534;8.316;2022-07-23T06:54:09;20.60;;;7.70;;
3625;SDS011;1827;50.534;8.316;2022-07-23T06:56:35;21.50;;;7.00;;
3625;SDS011;1827;50.534;8.316;2022-07-23T06:59:01;19.80;;;7.10;;
3625;SDS011;1827;50.534;8.316;2022-07-23T07:01:27;18.90;;;6.93;;
3625;SDS011;1827;50.534;8.316;2022-07-23T07:03:53;18.13;;;6.70;;
3625;SDS011;1827;50.534;8.316;2022-07-23T07:06:18;19.63;;;6.63;;
3625;SDS011;1827;50.534;8.316;2022-07-23T07:08:44;20.40;;;6.63;;
3625;SDS011;1827;50.534;8.316;2022-07-23T07:11:10;19.17;;;7.17;;
3625;SDS011;1827;50.534;8.316;2022-07-23T07:13:36;19.60;;;7.10;;
3625;SDS011;1827;50.534;8.316;2022-07-23T07:16:02;22.03;;;8.17;;
3625;SDS011;1827;50.534;8.316;2022-07-23T07:18:29;22.87;;;7.80;;
3625;SDS011;1827;50.534;8.316;2022-07-23T07:20:55;21.77;;;6.93;;
3625;SDS011;1827;50.534;8.316;2022-07-23T07:23:21;23.60;;;7.97;;
3625;SDS011;1827;50.534;8.316;2022-07-23T07:25:47;20.93;;;7.17;;
3625;SDS011;1827;50.534;8.316;2022-07-23T07:28:13;20.97;;;6.70;;
3625;SDS011;1827;50.534;8.316;2022-07-23T07:30:38;24.63;;;7.23;;
3625;SDS011;1827;50.534;8.316;2022-07-23T07:33:04;27.47;;;7.00;;
3625;SDS011;1827;50.534;8.316;2022-07-23T07:35:30;18.93;;;6.23;;
3625;SDS011;1827;50.534;8.316;2022-07-23T07:37:57;18.50;;;6.53;;
3625;SDS011;1827;50.534;8.316;2022-07-23T07:40:24;18.40;;;6.47;;
3625;SDS011;1827;50.534;8.316;2022-07-23T07:42:51;17.23;;;5.60;;
3625;SDS011;1827;50.534;8.316;2022-07-23T07:45:22;17.53;;;6.13;;
3625;SDS011;1827;50.534;8.316;2022-07-23T07:47:48;16.50;;;5.50;;
3625;SDS011;1827;50.534;8.316;2022-07-23T07:50:14;17.03;;;5.87;;
3625;SDS011;1827;50.534;8.316;2022-07-23T07:52:40;16.37;;;5.00;;
3625;SDS011;1827;50.534;8.316;2022-07-23T07:55:09;18.40;;;5.90;;
3625;SDS011;1827;50.534;8.316;2022-07-23T07:57:36;17.00;;;5.60;;
3625;SDS011;1827;50.534;8.316;2022-07-23T08:00:03;18.10;;;5.70;;
3625;SDS011;1827;50.534;8.316;2022-07-23T08:02:44;19.27;;;5.83;;
3625;SDS011;1827;50.534;8.316;2022-07-23T08:05:14;16.10;;;4.60;;
3625;SDS011;1827;50.534;8.316;2022-07-23T08:07:43;15.50;;;4.40;;
3625;SDS011;1827;50.534;8.316;2022-07-23T08:10:09;22.40;;;5.23;;
3625;SDS011;1827;50.534;8.316;2022-07-23T08:12:42;15.77;;;5.33;;
3625;SDS011;1827;50.534;8.316;2022-07-23T08:15:10;15.50;;;5.07;;
3625;SDS011;1827;50.534;8.316;2022-07-23T08:17:37;18.73;;;5.40;;
3625;SDS011;1827;50.534;8.316;2022-07-23T08:20:04;20.70;;;5.27;;
3625;SDS011;1827;50.534;8.316;2022-07-23T08:22:50;18.50;;;5.23;;
3625;SDS011;1827;50.534;8.316;2022-07-23T08:25:19;19.80;;;5.53;;
3625;SDS011;1827;50.534;8.316;2022-07-23T08:27:50;17.30;;;5.50;;
3625;SDS011;1827;50.534;8.316;2022-07-23T08:30:17;18.20;;;5.73;;
3625;SDS011;1827;50.534;8.316;2022-07-23T08:33:00;17.93;;;5.27;;
3625;SDS011;1827;50.534;8.316;2022-07-23T08:35:29;19.27;;;5.70;;
3625;SDS011;1827;50.534;8.316;2022-07-23T08:37:56;19.43;;;5.43;;
3625;SDS011;1827;50.534;8.316;2022-07-23T08:40:22;15.20;;;4.87;;
3625;SDS011;1827;50.534;8.316;2022-07-23T08:42:50;17.00;;;5.40;;
3625;SDS011;1827;50.534;8.316;2022-07-23T08:45:17;20.87;;;7.10;;
3625;SDS011;1827;50.534;8.316;2022-07-23T08:47:47;16.90;;;5.20;;
3625;SDS011;1827;50.534;8.316;2022-07-23T08:50:19;17.33;;;5.53;;
3625;SDS011;1827;50.534;8.316;2022-07-23T08:52:45;18.10;;;5.50;;
3625;SDS011;1827;50.534;8.316;2022-07-23T08:55:13;19.50;;;5.50;;
3625;SDS011;1827;50.534;8.316;2022-07-23T08:57:42;17.00;;;5.40;;
3625;SDS011;1827;50.534;8.316;2022-07-23T09:00:09;19.90;;;6.10;;
3625;SDS011;1827;50.534;8.316;2022-07-23T09:02:40;16.67;;;5.40;;
3625;SDS011;1827;50.534;8.316;2022-07-23T09:05:07;19.17;;;5.33;;
3625;SDS011;1827;50.534;8.316;2022-07-23T09:07:34;20.70;;;4.97;;
3625;SDS011;1827;50.534;8.316;2022-07-23T09:10:09;16.07;;;4.40;;
3625;SDS011;1827;50.534;8.316;2022-07-23T09:12:36;14.63;;;4.23;;
3625;SDS011;1827;50.534;8.316;2022-07-23T09:15:06;14.40;;;4.07;;
3625;SDS011;1827;50.534;8.316;2022-07-23T09:17:37;14.60;;;4.43;;
3625;SDS011;1827;50.534;8.316;2022-07-23T09:20:14;15.00;;;4.27;;
3625;SDS011;1827;50.534;8.316;2022-07-23T09:22:45;13.37;;;3.70;;
3625;SDS011;1827;50.534;8.316;2022-07-23T09:25:16;13.67;;;3.80;;
3625;SDS011;1827;50.534;8.316;2022-07-23T09:27:53;18.00;;;4.00;;
3625;SDS011;1827;50.534;8.316;2022-07-23T09:30:21;16.83;;;4.10;;
3625;SDS011;1827;50.534;8.316;2022-07-23T09:38:28;17.77;;;5.20;;
3625;SDS011;1827;50.534;8.316;2022-07-23T09:41:07;16.57;;;5.10;;
3625;SDS011;1827;50.534;8.316;2022-07-23T09:43:34;18.67;;;5.90;;
3625;SDS011;1827;50.534;8.316;2022-07-23T09:46:19;17.37;;;5.60;;
3625;SDS011;1827;50.534;8.316;2022-07-23T09:48:47;19.73;;;5.37;;
3625;SDS011;1827;50.534;8.316;2022-07-23T09:51:13;17.80;;;4.90;;
3625;SDS011;1827;50.534;8.316;2022-07-23T09:53:58;25.00;;;5.13;;
3625;SDS011;1827;50.534;8.316;2022-07-23T09:56:24;18.87;;;5.30;;
3625;SDS011;1827;50.534;8.316;2022-07-23T09:58:53;17.17;;;5.60;;
3625;SDS011;1827;50.534;8.316;2022-07-23T10:01:32;18.23;;;4.67;;
3625;SDS011;1827;50.534;8.316;2022-07-23T10:03:59;18.07;;;4.80;;
3625;SDS011;1827;50.534;8.316;2022-07-23T10:06:46;21.27;;;4.43;;
3625;SDS011;1827;50.534;8.316;2022-07-23T10:09:54;15.37;;;4.20;;
3625;SDS011;1827;50.534;8.316;2022-07-23T10:12:43;16.63;;;4.40;;
3625;SDS011;1827;50.534;8.316;2022-07-23T10:15:12;16.30;;;4.50;;
3625;SDS011;1827;50.534;8.316;2022-07-23T10:17:39;14.90;;;4.40;;
3625;SDS011;1827;50.534;8.316;2022-07-23T10:20:06;15.90;;;4.87;;
3625;SDS011;1827;50.534;8.316;2022-07-23T10:22:37;17.47;;;5.27;;
3625;SDS011;1827;50.534;8.316;2022-07-23T10:33:30;15.07;;;4.40;;
3625;SDS011;1827;50.534;8.316;2022-07-23T10:38:40;14.67;;;4.20;;
3625;SDS011;1827;50.534;8.316;2022-07-23T10:41:19;15.00;;;4.50;;
3625;SDS011;1827;50.534;8.316;2022-07-23T10:46:31;17.00;;;5.00;;
3625;SDS011;1827;50.534;8.316;2022-07-23T10:49:29;15.20;;;4.63;;
3625;SDS011;1827;50.534;8.316;2022-07-23T10:54:41;15.73;;;4.30;;
3625;SDS011;1827;50.534;8.316;2022-07-23T10:57:08;15.27;;;4.27;;
3625;SDS011;1827;50.534;8.316;2022-07-23T11:02:42;14.83;;;4.53;;
3625;SDS011;1827;50.534;8.316;2022-07-23T11:05:11;16.97;;;4.50;;
3625;SDS011;1827;50.534;8.316;2022-07-23T11:10:32;16.70;;;4.43;;
3625;SDS011;1827;50.534;8.316;2022-07-23T11:32:38;16.03;;;4.33;;
3625;SDS011;1827;50.534;8.316;2022-07-23T11:34:49;14.90;;;4.03;;
3625;SDS011;1827;50.534;8.316;2022-07-23T11:37:37;15.03;;;4.10;;
3625;SDS011;1827;50.534;8.316;2022-07-23T11:40:26;16.43;;;3.80;;
3625;SDS011;1827;50.534;8.316;2022-07-23T11:42:52;13.27;;;3.93;;
3625;SDS011;1827;50.534;8.316;2022-07-23T11:45:24;13.80;;;3.40;;
3625;SDS011;1827;50.534;8.316;2022-07-23T11:47:54;13.40;;;3.10;;
3625;SDS011;1827;50.534;8.316;2022-07-23T11:50:22;12.30;;;3.00;;
3625;SDS011;1827;50.534;8.316;2022-07-23T11:52:50;13.30;;;3.10;;
3625;SDS011;1827;50.534;8.316;2022-07-23T11:55:16;13.37;;;3.47;;
3625;SDS011;1827;50.534;8.316;2022-07-23T11:57:43;14.10;;;3.20;;
3625;SDS011;1827;50.534;8.316;2022-07-23T12:00:11;12.80;;;3.23;;
3625;SDS011;1827;50.534;8.316;2022-07-23T12:02:41;14.40;;;3.40;;
3625;SDS011;1827;50.534;8.316;2022-07-23T12:05:28;14.40;;;3.70;;
3625;SDS011;1827;50.534;8.316;2022-07-23T12:07:58;14.00;;;3.47;;
3625;SDS011;1827;50.534;8.316;2022-07-23T12:10:29;13.87;;;3.73;;
3625;SDS011;1827;50.534;8.316;2022-07-23T12:13:06;20.33;;;3.70;;
3625;SDS011;1827;50.534;8.316;2022-07-23T12:15:53;15.40;;;3.40;;
3625;SDS011;1827;50.534;8.316;2022-07-23T12:18:23;13.77;;;3.63;;
3625;SDS011;1827;50.534;8.316;2022-07-23T12:20:51;13.50;;;3.60;;
3625;SDS011;1827;50.534;8.316;2022-07-23T12:23:20;17.60;;;3.90;;
3625;SDS011;1827;50.534;8.316;2022-07-23T12:25:47;15.80;;;3.80;;
3625;SDS011;1827;50.534;8.316;2022-07-23T12:30:46;14.40;;;3.70;;
3625;SDS011;1827;50.534;8.316;2022-07-23T12:33:25;15.93;;;3.90;;
3625;SDS011;1827;50.534;8.316;2022-07-23T12:36:06;19.60;;;3.73;;
3625;SDS011;1827;50.534;8.316;2022-07-23T12:38:40;13.33;;;2.90;;
3625;SDS011;1827;50.534;8.316;2022-07-23T12:41:14;13.80;;;2.83;;
3625;SDS011;1827;50.534;8.316;2022-07-23T12:43:42;11.97;;;3.00;;
3625;SDS011;1827;50.534;8.316;2022-07-23T12:46:11;15.07;;;3.33;;
3625;SDS011;1827;50.534;8.316;2022-07-23T12:51:18;15.77;;;3.53;;
3625;SDS011;1827;50.534;8.316;2022-07-23T12:53:56;16.73;;;3.77;;
3625;SDS011;1827;50.534;8.316;2022-07-23T12:56:27;13.73;;;3.20;;
3625;SDS011;1827;50.534;8.316;2022-07-23T12:58:58;13.93;;;3.30;;
3625;SDS011;1827;50.534;8.316;2022-07-23T13:01:37;12.60;;;3.27;;
3625;SDS011;1827;50.534;8.316;2022-07-23T13:04:05;13.23;;;2.90;;
3625;SDS011;1827;50.534;8.316;2022-07-23T13:06:34;14.23;;;3.13;;
3625;SDS011;1827;50.534;8.316;2022-07-23T13:09:07;13.80;;;3.17;;
3625;SDS011;1827;50.534;8.316;2022-07-23T13:11:34;12.20;;;2.77;;
3625;SDS011;1827;50.534;8.316;2022-07-23T13:14:00;11.53;;;2.73;;
3625;SDS011;1827;50.534;8.316;2022-07-23T13:16:29;12.00;;;2.40;;
3625;SDS011;1827;50.534;8.316;2022-07-23T13:18:56;11.93;;;2.50;;
3625;SDS011;1827;50.534;8.316;2022-07-23T13:21:23;18.10;;;2.37;;
3625;SDS011;1827;50.534;8.316;2022-07-23T13:23:49;12.60;;;2.50;;
3625;SDS011;1827;50.534;8.316;2022-07-23T13:26:15;11.50;;;2.63;;
3625;SDS011;1827;50.534;8.316;2022-07-23T13:28:41;12.03;;;2.60;;
3625;SDS011;1827;50.534;8.316;2022-07-23T13:31:07;13.73;;;2.70;;
3625;SDS011;1827;50.534;8.316;2022-07-23T13:33:33;12.43;;;3.00;;
3625;SDS011;1827;50.534;8.316;2022-07-23T13:35:59;11.03;;;2.70;;
3625;SDS011;1827;50.534;8.316;2022-07-23T13:38:25;11.70;;;2.63;;
3625;SDS011;1827;50.534;8.316;2022-07-23T13:40:52;12.73;;;3.20;;
3625;SDS011;1827;50.534;8.316;2022-07-23T13:43:20;12.70;;;2.63;;
3625;SDS011;1827;50.534;8.316;2022-07-23T13:45:46;12.00;;;2.73;;
3625;SDS011;1827;50.534;8.316;2022-07-23T13:48:13;12.73;;;2.30;;
3625;SDS011;1827;50.534;8.316;2022-07-23T13:50:39;11.40;;;2.60;;
3625;SDS011;1827;50.534;8.316;2022-07-23T13:53:07;12.47;;;2.73;;
3625;SDS011;1827;50.534;8.316;2022-07-23T13:55:35;12.33;;;2.53;;
3625;SDS011;1827;50.534;8.316;2022-07-23T13:58:02;11.93;;;2.80;;
3625;SDS011;1827;50.534;8.316;2022-07-23T14:00:29;12.30;;;2.47;;
3625;SDS011;1827;50.534;8.316;2022-07-23T14:02:55;13.13;;;2.90;;
3625;SDS011;1827;50.534;8.316;2022-07-23T14:05:22;12.77;;;2.97;;
3625;SDS011;1827;50.534;8.316;2022-07-23T14:07:47;14.37;;;2.63;;
3625;SDS011;1827;50.534;8.316;2022-07-23T14:10:15;14.00;;;2.87;;
3625;SDS011;1827;50.534;8.316;2022-07-23T14:12:43;14.43;;;3.20;;
3625;SDS011;1827;50.534;8.316;2022-07-23T14:15:10;13.50;;;3.20;;
3625;SDS011;1827;50.534;8.316;2022-07-23T14:17:37;14.20;;;3.10;;
3625;SDS011;1827;50.534;8.316;2022-07-23T14:20:04;14.60;;;3.33;;
3625;SDS011;1827;50.534;8.316;2022-07-23T14:22:31;18.40;;;3.00;;
3625;SDS011;1827;50.534;8.316;2022-07-23T14:24:57;14.43;;;3.07;;
3625;SDS011;1827;50.534;8.316;2022-07-23T14:27:24;14.20;;;3.17;;
3625;SDS011;1827;50.534;8.316;2022-07-23T14:29:50;12.97;;;3.03;;
3625;SDS011;1827;50.534;8.316;2022-07-23T14:32:16;14.60;;;2.90;;
3625;SDS011;1827;50.534;8.316;2022-07-23T14:34:42;15.97;;;3.43;;
3625;SDS011;1827;50.534;8.316;2022-07-23T14:37:09;15.67;;;2.73;;
3625;SDS011;1827;50.534;8.316;2022-07-23T14:39:36;12.77;;;2.90;;
3625;SDS011;1827;50.534;8.316;2022-07-23T14:42:02;12.23;;;2.97;;
3625;SDS011;1827;50.534;8.316;2022-07-23T14:44:28;14.00;;;3.03;;
3625;SDS011;1827;50.534;8.316;2022-07-23T14:46:54;13.83;;;2.80;;
3625;SDS011;1827;50.534;8.316;2022-07-23T14:49:20;19.70;;;3.00;;
3625;SDS011;1827;50.534;8.316;2022-07-23T14:51:46;13.37;;;2.67;;
3625;SDS011;1827;50.534;8.316;2022-07-23T14:54:12;14.80;;;2.87;;
3625;SDS011;1827;50.534;8.316;2022-07-23T14:56:39;15.20;;;2.50;;
3625;SDS011;1827;50.534;8.316;2022-07-23T14:59:07;14.97;;;4.10;;
3625;SDS011;1827;50.534;8.316;2022-07-23T15:01:33;14.80;;;2.63;;
3625;SDS011;1827;50.534;8.316;2022-07-23T15:03:59;13.30;;;2.90;;
3625;SDS011;1827;50.534;8.316;2022-07-23T15:06:25;12.80;;;2.60;;
3625;SDS011;1827;50.534;8.316;2022-07-23T15:08:51;16.20;;;3.27;;
3625;SDS011;1827;50.534;8.316;2022-07-23T15:11:17;12.50;;;2.80;;
3625;SDS011;1827;50.534;8.316;2022-07-23T15:13:43;14.17;;;2.80;;
3625;SDS011;1827;50.534;8.316;2022-07-23T15:16:09;13.10;;;2.93;;
3625;SDS011;1827;50.534;8.316;2022-07-23T15:18:35;12.83;;;3.10;;
3625;SDS011;1827;50.534;8.316;2022-07-23T15:21:01;12.27;;;2.67;;
3625;SDS011;1827;50.534;8.316;2022-07-23T15:23:28;12.97;;;2.83;;
3625;SDS011;1827;50.534;8.316;2022-07-23T15:25:56;15.33;;;2.93;;
3625;SDS011;1827;50.534;8.316;2022-07-23T15:28:27;12.43;;;2.83;;
3625;SDS011;1827;50.534;8.316;2022-07-23T15:30:53;12.87;;;2.87;;
3625;SDS011;1827;50.534;8.316;2022-07-23T15:33:19;15.30;;;3.73;;
3625;SDS011;1827;50.534;8.316;2022-07-23T15:35:45;16.17;;;3.80;;
3625;SDS011;1827;50.534;8.316;2022-07-23T15:38:11;14.80;;;3.60;;
3625;SDS011;1827;50.534;8.316;2022-07-23T15:40:37;14.60;;;3.53;;
3625;SDS011;1827;50.534;8.316;2022-07-23T15:43:03;15.83;;;3.70;;
3625;SDS011;1827;50.534;8.316;2022-07-23T15:45:31;18.43;;;4.40;;
3625;SDS011;1827;50.534;8.316;2022-07-23T15:47:57;14.30;;;3.60;;
3625;SDS011;1827;50.534;8.316;2022-07-23T15:50:23;16.03;;;3.77;;
3625;SDS011;1827;50.534;8.316;2022-07-23T15:52:49;14.70;;;3.47;;
3625;SDS011;1827;50.534;8.316;2022-07-23T15:55:18;16.87;;;3.43;;